createdAt,value
2022-09-18T00:00:57.565Z,1007.18
2022-09-18T00:01:57.764Z,1007.16
2022-09-18T00:02:58.026Z,1007.17
2022-09-18T00:03:58.085Z,1007.20
2022-09-18T00:04:58.271Z,1007.20
2022-09-18T00:05:58.487Z,1007.24
2022-09-18T00:06:58.612Z,1007.20
2022-09-18T00:07:58.814Z,1007.20
2022-09-18T00:08:58.989Z,1007.22
2022-09-18T00:10:00.093Z,1007.19
2022-09-18T00:10:59.273Z,1007.18
2022-09-18T00:11:59.451Z,1007.18
2022-09-18T00:12:59.626Z,1007.19
2022-09-18T00:13:59.782Z,1007.18
2022-09-18T00:14:59.950Z,1007.18
2022-09-18T00:16:00.207Z,1007.15
2022-09-18T00:17:00.304Z,1007.18
2022-09-18T00:18:00.482Z,1007.21
2022-09-18T00:19:00.652Z,1007.18
2022-09-18T00:20:00.844Z,1007.21
2022-09-18T00:21:01.010Z,1007.24
2022-09-18T00:22:01.170Z,1007.20
2022-09-18T00:23:01.351Z,1007.19
2022-09-18T00:24:01.487Z,1007.21
2022-09-18T00:25:01.652Z,1007.22
2022-09-18T00:26:01.850Z,1007.21
2022-09-18T00:27:02.038Z,1007.19
2022-09-18T00:28:02.205Z,1007.25
2022-09-18T00:29:02.379Z,1007.23
2022-09-18T00:30:02.554Z,1007.25
2022-09-18T00:31:02.752Z,1007.24
2022-09-18T00:32:02.873Z,1007.26
2022-09-18T00:33:03.052Z,1007.21
2022-09-18T00:34:03.199Z,1007.26
2022-09-18T00:35:03.363Z,1007.26
2022-09-18T00:36:03.542Z,1007.26
2022-09-18T00:37:03.700Z,1007.26
2022-09-18T00:38:03.844Z,1007.34
2022-09-18T00:39:04.021Z,1007.33
2022-09-18T00:40:04.284Z,1007.32
2022-09-18T00:41:04.360Z,1007.31
2022-09-18T00:42:04.546Z,1007.32
2022-09-18T00:43:04.681Z,1007.33
2022-09-18T00:44:04.842Z,1007.35
2022-09-18T00:45:05.058Z,1007.35
2022-09-18T00:46:05.275Z,1007.34
2022-09-18T00:47:05.451Z,1007.33
2022-09-18T00:48:05.585Z,1007.39
2022-09-18T00:49:05.744Z,1007.37
2022-09-18T00:50:05.901Z,1007.37
2022-09-18T00:51:06.091Z,1007.39
2022-09-18T00:52:06.291Z,1007.39
2022-09-18T00:53:06.421Z,1007.41
2022-09-18T00:54:06.581Z,1007.41
2022-09-18T00:55:06.751Z,1007.42
2022-09-18T00:56:06.911Z,1007.42
2022-09-18T00:57:07.111Z,1007.40
2022-09-18T00:58:07.236Z,1007.42
2022-09-18T00:59:07.441Z,1007.39
2022-09-18T01:00:07.603Z,1007.40
2022-09-18T01:01:07.812Z,1007.38
2022-09-18T01:02:08.017Z,1007.40
2022-09-18T01:03:08.131Z,1007.37
2022-09-18T01:04:08.281Z,1007.41
2022-09-18T01:05:08.491Z,1007.44
2022-09-18T01:06:08.651Z,1007.45
2022-09-18T01:07:08.862Z,1007.43
2022-09-18T01:08:09.012Z,1007.43
2022-09-18T01:09:09.172Z,1007.43
2022-09-18T01:10:09.351Z,1007.41
2022-09-18T01:11:09.564Z,1007.46
2022-09-18T01:12:09.685Z,1007.47
2022-09-18T01:13:09.881Z,1007.50
2022-09-18T01:14:10.040Z,1007.54
2022-09-18T01:15:10.201Z,1007.54
2022-09-18T01:16:10.431Z,1007.54
2022-09-18T01:17:10.531Z,1007.52
2022-09-18T01:18:10.701Z,1007.55
2022-09-18T01:19:10.867Z,1007.52
2022-09-18T01:20:11.021Z,1007.50
2022-09-18T01:21:11.231Z,1007.54
2022-09-18T01:22:11.386Z,1007.52
2022-09-18T01:23:11.551Z,1007.51
2022-09-18T01:24:11.714Z,1007.50
2022-09-18T01:25:11.911Z,1007.53
2022-09-18T01:26:12.081Z,1007.55
2022-09-18T01:27:12.268Z,1007.57
2022-09-18T01:28:12.431Z,1007.58
2022-09-18T01:29:12.591Z,1007.58
2022-09-18T01:30:12.761Z,1007.55
2022-09-18T01:31:13.008Z,1007.54
2022-09-18T01:32:13.096Z,1007.58
2022-09-18T01:33:13.280Z,1007.54
2022-09-18T01:34:13.432Z,1007.50
2022-09-18T01:35:36.708Z,1007.47
2022-09-18T01:36:14.780Z,1007.53
2022-09-18T01:37:13.924Z,1007.52
2022-09-18T01:38:14.082Z,1007.55
2022-09-18T01:39:14.251Z,1007.57
2022-09-18T01:40:14.432Z,1007.58
2022-09-18T01:41:14.596Z,1007.58
2022-09-18T01:42:14.753Z,1007.56
2022-09-18T01:43:14.911Z,1007.61
2022-09-18T01:44:15.108Z,1007.61
2022-09-18T01:45:15.294Z,1007.63
2022-09-18T01:46:15.503Z,1007.68
2022-09-18T01:47:15.645Z,1007.64
2022-09-18T01:48:15.814Z,1007.71
2022-09-18T01:49:15.981Z,1007.71
2022-09-18T01:50:16.140Z,1007.69
2022-09-18T01:51:16.331Z,1007.75
2022-09-18T01:52:16.494Z,1007.75
2022-09-18T01:53:16.661Z,1007.80
2022-09-18T01:54:16.813Z,1007.78
2022-09-18T01:55:16.982Z,1007.82
2022-09-18T01:56:17.151Z,1007.79
2022-09-18T01:57:17.333Z,1007.84
2022-09-18T01:58:17.481Z,1007.83
2022-09-18T01:59:17.662Z,1007.86
2022-09-18T02:00:17.820Z,1007.87
2022-09-18T02:01:18.070Z,1007.85
2022-09-18T02:02:18.303Z,1007.88
2022-09-18T02:03:18.351Z,1007.90
2022-09-18T02:04:18.531Z,1007.89
2022-09-18T02:05:18.720Z,1007.90
2022-09-18T02:06:18.891Z,1007.85
2022-09-18T02:07:19.145Z,1007.89
2022-09-18T02:08:19.282Z,1007.89
2022-09-18T02:09:19.412Z,1007.91
2022-09-18T02:10:19.578Z,1007.91
2022-09-18T02:11:19.758Z,1007.91
2022-09-18T02:12:19.921Z,1007.90
2022-09-18T02:13:21.044Z,1007.93
2022-09-18T02:14:20.300Z,1007.93
2022-09-18T02:15:20.430Z,1007.94
2022-09-18T02:16:20.696Z,1007.89
2022-09-18T02:17:20.758Z,1007.91
2022-09-18T02:18:20.969Z,1007.91
2022-09-18T02:19:21.120Z,1007.88
2022-09-18T02:20:21.310Z,1007.94
2022-09-18T02:21:21.490Z,1007.95
2022-09-18T02:22:21.656Z,1007.91
2022-09-18T02:23:21.815Z,1007.92
2022-09-18T02:24:21.995Z,1007.91
2022-09-18T02:25:22.150Z,1007.93
2022-09-18T02:26:22.350Z,1007.90
2022-09-18T02:27:22.509Z,1007.90
2022-09-18T02:28:22.680Z,1007.97
2022-09-18T02:29:22.863Z,1007.95
2022-09-18T02:30:23.022Z,1008.01
2022-09-18T02:31:23.280Z,1007.95
2022-09-18T02:32:23.362Z,1007.97
2022-09-18T02:33:23.533Z,1007.97
2022-09-18T02:34:23.697Z,1007.94
2022-09-18T02:35:23.848Z,1007.98
2022-09-18T02:36:24.072Z,1008.01
2022-09-18T02:37:24.242Z,1007.98
2022-09-18T02:38:24.399Z,1008.01
2022-09-18T02:39:24.567Z,1007.98
2022-09-18T02:40:24.803Z,1008.01
2022-09-18T02:41:24.919Z,1008.00
2022-09-18T02:42:25.070Z,1008.02
2022-09-18T02:43:25.239Z,1008.01
2022-09-18T02:44:25.420Z,1007.97
2022-09-18T02:45:25.588Z,1008.03
2022-09-18T02:46:25.881Z,1008.04
2022-09-18T02:47:25.949Z,1008.03
2022-09-18T02:48:26.109Z,1008.06
2022-09-18T02:49:26.269Z,1008.02
2022-09-18T02:50:26.438Z,1008.06
2022-09-18T02:51:26.620Z,1008.05
2022-09-18T02:52:26.792Z,1008.02
2022-09-18T02:53:26.960Z,1008.04
2022-09-18T02:54:27.159Z,1008.02
2022-09-18T02:55:27.315Z,1008.08
2022-09-18T02:56:27.504Z,1008.08
2022-09-18T02:57:27.659Z,1008.08
2022-09-18T02:58:27.848Z,1008.08
2022-09-18T02:59:28.011Z,1008.09
2022-09-18T03:00:28.190Z,1008.07
2022-09-18T03:01:28.419Z,1008.11
2022-09-18T03:02:28.665Z,1008.09
2022-09-18T03:03:28.719Z,1008.11
2022-09-18T03:04:28.880Z,1008.17
2022-09-18T03:05:29.071Z,1008.14
2022-09-18T03:06:29.260Z,1008.11
2022-09-18T03:07:29.389Z,1008.13
2022-09-18T03:08:29.599Z,1008.16
2022-09-18T03:09:29.740Z,1008.22
2022-09-18T03:10:29.960Z,1008.20
2022-09-18T03:11:30.131Z,1008.20
2022-09-18T03:12:30.291Z,1008.25
2022-09-18T03:13:30.448Z,1008.23
2022-09-18T03:14:30.619Z,1008.22
2022-09-18T03:15:30.779Z,1008.21
2022-09-18T03:16:31.078Z,1008.20
2022-09-18T03:17:31.170Z,1008.18
2022-09-18T03:18:31.354Z,1008.22
2022-09-18T03:19:31.529Z,1008.20
2022-09-18T03:20:31.712Z,1008.22
2022-09-18T03:21:31.889Z,1008.22
2022-09-18T03:22:32.049Z,1008.26
2022-09-18T03:23:32.211Z,1008.25
2022-09-18T03:24:32.379Z,1008.28
2022-09-18T03:25:32.557Z,1008.25
2022-09-18T03:26:32.749Z,1008.32
2022-09-18T03:27:32.916Z,1008.27
2022-09-18T03:28:33.078Z,1008.25
2022-09-18T03:29:33.274Z,1008.42
2022-09-18T03:30:33.433Z,1008.35
2022-09-18T03:31:33.680Z,1008.32
2022-09-18T03:32:33.760Z,1008.35
2022-09-18T03:33:33.939Z,1008.38
2022-09-18T03:34:34.108Z,1008.31
2022-09-18T03:35:34.259Z,1008.33
2022-09-18T03:36:34.498Z,1008.39
2022-09-18T03:37:34.639Z,1008.33
2022-09-18T03:38:34.799Z,1008.41
2022-09-18T03:39:34.958Z,1008.40
2022-09-18T03:40:35.192Z,1008.44
2022-09-18T03:41:35.330Z,1008.42
2022-09-18T03:42:35.488Z,1008.45
2022-09-18T03:43:35.662Z,1008.43
2022-09-18T03:44:35.829Z,1008.43
2022-09-18T03:45:36.009Z,1008.51
2022-09-18T03:46:36.249Z,1008.45
2022-09-18T03:47:36.833Z,1008.41
2022-09-18T03:48:36.538Z,1008.49
2022-09-18T03:49:36.708Z,1008.43
2022-09-18T03:50:36.877Z,1008.46
2022-09-18T03:51:37.068Z,1008.48
2022-09-18T03:52:37.239Z,1008.47
2022-09-18T03:53:37.398Z,1008.44
2022-09-18T03:54:37.568Z,1008.49
2022-09-18T03:55:37.733Z,1008.46
2022-09-18T03:56:37.908Z,1008.49
2022-09-18T03:57:38.081Z,1008.49
2022-09-18T03:58:38.247Z,1008.53
2022-09-18T03:59:38.408Z,1008.52
2022-09-18T04:00:38.599Z,1008.53
2022-09-18T04:01:38.859Z,1008.53
2022-09-18T04:02:38.967Z,1008.55
2022-09-18T04:03:39.108Z,1008.54
2022-09-18T04:04:39.278Z,1008.57
2022-09-18T04:05:39.427Z,1008.55
2022-09-18T04:06:39.617Z,1008.57
2022-09-18T04:07:39.749Z,1008.60
2022-09-18T04:08:39.918Z,1008.63
2022-09-18T04:09:40.077Z,1008.54
2022-09-18T04:10:40.253Z,1008.53
2022-09-18T04:11:40.439Z,1008.57
2022-09-18T04:12:40.598Z,1008.62
2022-09-18T04:13:40.787Z,1008.62
2022-09-18T04:14:40.942Z,1008.59
2022-09-18T04:15:41.120Z,1008.62
2022-09-18T04:16:41.278Z,1008.63
2022-09-18T04:17:41.446Z,1008.61
2022-09-18T04:18:41.598Z,1008.63
2022-09-18T04:19:41.769Z,1008.61
2022-09-18T04:20:41.939Z,1008.60
2022-09-18T04:21:42.117Z,1008.61
2022-09-18T04:22:42.267Z,1008.65
2022-09-18T04:23:42.417Z,1008.64
2022-09-18T04:24:42.608Z,1008.61
2022-09-18T04:25:42.787Z,1008.69
2022-09-18T04:26:42.939Z,1008.68
2022-09-18T04:27:43.089Z,1008.67
2022-09-18T04:28:43.267Z,1008.66
2022-09-18T04:29:43.440Z,1008.64
2022-09-18T04:30:43.626Z,1008.69
2022-09-18T04:31:43.940Z,1008.70
2022-09-18T04:32:43.997Z,1008.68
2022-09-18T04:33:44.178Z,1008.72
2022-09-18T04:34:44.350Z,1008.74
2022-09-18T04:35:44.506Z,1008.73
2022-09-18T04:36:44.697Z,1008.68
2022-09-18T04:37:44.850Z,1008.71
2022-09-18T04:38:45.018Z,1008.71
2022-09-18T04:39:45.197Z,1008.74
2022-09-18T04:40:45.388Z,1008.74
2022-09-18T04:41:45.568Z,1008.75
2022-09-18T04:42:45.735Z,1008.75
2022-09-18T04:43:45.919Z,1008.79
2022-09-18T04:44:46.100Z,1008.78
2022-09-18T04:45:46.247Z,1008.74
2022-09-18T04:46:46.494Z,1008.80
2022-09-18T04:47:46.606Z,1008.82
2022-09-18T04:48:46.798Z,1008.89
2022-09-18T04:49:46.979Z,1008.86
2022-09-18T04:50:47.189Z,1008.80
2022-09-18T04:51:47.338Z,1008.84
2022-09-18T04:52:47.517Z,1008.86
2022-09-18T04:53:47.687Z,1008.86
2022-09-18T04:54:47.854Z,1008.89
2022-09-18T04:55:48.046Z,1008.88
2022-09-18T04:56:48.226Z,1008.86
2022-09-18T04:57:51.221Z,1008.87
2022-09-18T04:58:49.537Z,1008.87
2022-09-18T04:59:48.730Z,1008.87
2022-09-18T05:00:48.953Z,1008.91
2022-09-18T05:01:49.136Z,1008.92
2022-09-18T05:02:49.237Z,1008.91
2022-09-18T05:03:49.406Z,1008.94
2022-09-18T05:04:49.593Z,1008.97
2022-09-18T05:05:49.796Z,1008.97
2022-09-18T05:06:49.936Z,1009.01
2022-09-18T05:07:50.097Z,1009.06
2022-09-18T05:08:50.295Z,1009.05
2022-09-18T05:09:50.446Z,1009.07
2022-09-18T05:10:50.664Z,1009.11
2022-09-18T05:11:50.816Z,1009.06
2022-09-18T05:12:50.985Z,1009.09
2022-09-18T05:13:51.166Z,1009.08
2022-09-18T05:14:51.376Z,1009.08
2022-09-18T05:15:51.600Z,1009.10
2022-09-18T05:16:51.719Z,1009.11
2022-09-18T05:17:51.878Z,1009.06
2022-09-18T05:18:52.043Z,1009.02
2022-09-18T05:19:52.206Z,1009.03
2022-09-18T05:20:52.396Z,1009.11
2022-09-18T05:21:52.580Z,1008.99
2022-09-18T05:22:52.739Z,1009.08
2022-09-18T05:23:52.897Z,1009.08
2022-09-18T05:24:53.085Z,1009.08
2022-09-18T05:25:53.277Z,1009.13
2022-09-18T05:26:53.433Z,1009.07
2022-09-18T05:27:53.607Z,1009.06
2022-09-18T05:28:53.798Z,1009.10
2022-09-18T05:29:53.945Z,1009.13
2022-09-18T05:30:54.145Z,1009.10
2022-09-18T05:31:54.394Z,1009.15
2022-09-18T05:32:58.135Z,1009.09
2022-09-18T05:33:54.654Z,1009.20
2022-09-18T05:34:54.806Z,1009.20
2022-09-18T05:35:54.986Z,1009.17
2022-09-18T05:36:55.125Z,1009.18
2022-09-18T05:37:55.294Z,1009.21
2022-09-18T05:38:55.484Z,1009.16
2022-09-18T05:39:55.740Z,1009.22
2022-09-18T05:40:55.846Z,1009.25
2022-09-18T05:41:56.015Z,1009.24
2022-09-18T05:42:56.207Z,1009.21
2022-09-18T05:43:56.355Z,1009.22
2022-09-18T05:45:01.144Z,1009.24
2022-09-18T05:45:57.726Z,1009.23
2022-09-18T05:46:56.921Z,1009.22
2022-09-18T05:47:57.045Z,1009.30
2022-09-18T05:48:57.225Z,1009.28
2022-09-18T05:49:57.405Z,1009.30
2022-09-18T05:50:57.606Z,1009.31
2022-09-18T05:51:57.746Z,1009.25
2022-09-18T05:52:57.905Z,1009.26
2022-09-18T05:53:58.087Z,1009.30
2022-09-18T05:54:58.257Z,1009.33
2022-09-18T05:55:58.484Z,1009.28
2022-09-18T05:56:58.618Z,1009.31
2022-09-18T05:57:58.802Z,1009.31
2022-09-18T05:58:58.975Z,1009.34
2022-09-18T05:59:59.155Z,1009.36
2022-09-18T06:00:59.485Z,1009.38
2022-09-18T06:01:59.594Z,1009.34
2022-09-18T06:02:59.782Z,1009.35
2022-09-18T06:03:59.888Z,1009.41
2022-09-18T06:05:00.071Z,1009.39
2022-09-18T06:06:00.255Z,1009.43
2022-09-18T06:07:00.449Z,1009.36
2022-09-18T06:08:00.595Z,1009.39
2022-09-18T06:09:00.852Z,1009.33
2022-09-18T06:10:00.944Z,1009.35
2022-09-18T06:11:01.213Z,1009.31
2022-09-18T06:12:01.334Z,1009.35
2022-09-18T06:13:01.505Z,1009.38
2022-09-18T06:14:01.635Z,1009.41
2022-09-18T06:15:01.839Z,1009.36
2022-09-18T06:16:02.100Z,1009.31
2022-09-18T06:17:02.186Z,1009.37
2022-09-18T06:18:02.364Z,1009.38
2022-09-18T06:19:02.554Z,1009.41
2022-09-18T06:20:02.724Z,1009.41
2022-09-18T06:21:02.934Z,1009.50
2022-09-18T06:22:03.085Z,1009.52
2022-09-18T06:23:03.264Z,1009.54
2022-09-18T06:24:03.511Z,1009.47
2022-09-18T06:25:03.633Z,1009.45
2022-09-18T06:26:03.828Z,1009.51
2022-09-18T06:27:03.983Z,1009.50
2022-09-18T06:28:04.164Z,1009.52
2022-09-18T06:29:04.355Z,1009.51
2022-09-18T06:30:04.534Z,1009.46
2022-09-18T06:31:04.796Z,1009.52
2022-09-18T06:32:04.912Z,1009.52
2022-09-18T06:33:05.094Z,1009.52
2022-09-18T06:34:05.281Z,1009.47
2022-09-18T06:35:05.455Z,1009.49
2022-09-18T06:36:05.655Z,1009.54
2022-09-18T06:37:05.803Z,1009.54
2022-09-18T06:38:05.992Z,1009.52
2022-09-18T06:39:06.187Z,1009.52
2022-09-18T06:40:06.399Z,1009.56
2022-09-18T06:41:06.535Z,1009.50
2022-09-18T06:42:06.710Z,1009.55
2022-09-18T06:43:06.874Z,1009.53
2022-09-18T06:44:07.035Z,1009.51
2022-09-18T06:45:07.194Z,1009.56
2022-09-18T06:46:07.382Z,1009.58
2022-09-18T06:47:07.583Z,1009.59
2022-09-18T06:48:07.694Z,1009.58
2022-09-18T06:49:07.892Z,1009.55
2022-09-18T06:50:08.079Z,1009.56
2022-09-18T06:51:08.253Z,1009.61
2022-09-18T06:52:08.423Z,1009.53
2022-09-18T06:53:12.391Z,1009.51
2022-09-18T06:54:08.785Z,1009.53
2022-09-18T06:55:08.935Z,1009.53
2022-09-18T06:56:09.141Z,1009.49
2022-09-18T06:57:09.275Z,1009.52
2022-09-18T06:58:09.434Z,1009.60
2022-09-18T06:59:09.615Z,1009.54
2022-09-18T07:00:09.795Z,1009.57
2022-09-18T07:01:10.070Z,1009.57
2022-09-18T07:02:10.214Z,1009.58
2022-09-18T07:03:10.332Z,1009.59
2022-09-18T07:04:10.524Z,1009.60
2022-09-18T07:05:10.664Z,1009.60
2022-09-18T07:06:10.914Z,1009.64
2022-09-18T07:07:11.025Z,1009.63
2022-09-18T07:08:11.211Z,1009.63
2022-09-18T07:09:11.394Z,1009.65
2022-09-18T07:10:11.582Z,1009.59
2022-09-18T07:11:11.745Z,1009.62
2022-09-18T07:12:11.904Z,1009.59
2022-09-18T07:13:12.094Z,1009.62
2022-09-18T07:14:12.246Z,1009.66
2022-09-18T07:15:12.425Z,1009.59
2022-09-18T07:16:12.740Z,1009.60
2022-09-18T07:17:17.660Z,1009.67
2022-09-18T07:18:13.944Z,1009.57
2022-09-18T07:19:13.131Z,1009.65
2022-09-18T07:20:13.305Z,1009.56
2022-09-18T07:21:13.504Z,1009.70
2022-09-18T07:22:13.677Z,1009.66
2022-09-18T07:23:13.855Z,1009.62
2022-09-18T07:24:14.037Z,1009.56
2022-09-18T07:25:14.234Z,1009.62
2022-09-18T07:26:14.435Z,1009.60
2022-09-18T07:27:14.594Z,1009.63
2022-09-18T07:28:14.796Z,1009.61
2022-09-18T07:29:15.000Z,1009.64
2022-09-18T07:30:15.133Z,1009.67
2022-09-18T07:31:15.426Z,1009.75
2022-09-18T07:32:15.513Z,1009.69
2022-09-18T07:33:15.654Z,1009.67
2022-09-18T07:34:16.843Z,1009.70
2022-09-18T07:35:16.043Z,1009.62
2022-09-18T07:36:16.225Z,1009.62
2022-09-18T07:37:16.364Z,1009.61
2022-09-18T07:38:16.552Z,1009.64
2022-09-18T07:39:16.725Z,1009.64
2022-09-18T07:40:16.988Z,1009.56
2022-09-18T07:41:17.075Z,1009.55
2022-09-18T07:42:17.244Z,1009.56
2022-09-18T07:43:17.452Z,1009.55
2022-09-18T07:44:17.594Z,1009.64
2022-09-18T07:45:17.774Z,1009.57
2022-09-18T07:46:18.030Z,1009.64
2022-09-18T07:47:18.124Z,1009.46
2022-09-18T07:48:18.295Z,1009.50
2022-09-18T07:49:18.464Z,1009.54
2022-09-18T07:50:18.651Z,1009.49
2022-09-18T07:51:21.038Z,1009.40
2022-09-18T07:52:19.986Z,1009.50
2022-09-18T07:53:19.154Z,1009.57
2022-09-18T07:54:19.367Z,1009.54
2022-09-18T07:55:19.530Z,1009.48
2022-09-18T07:56:19.688Z,1009.49
2022-09-18T07:57:19.876Z,1009.49
2022-09-18T07:58:20.022Z,1009.47
2022-09-18T07:59:20.179Z,1009.47
2022-09-18T08:00:20.375Z,1009.49
2022-09-18T08:01:20.592Z,1009.55
2022-09-18T08:02:20.838Z,1009.46
2022-09-18T08:03:20.875Z,1009.47
2022-09-18T08:04:21.066Z,1009.48
2022-09-18T08:05:21.246Z,1009.41
2022-09-18T08:06:21.396Z,1009.40
2022-09-18T08:07:21.545Z,1009.45
2022-09-18T08:08:21.736Z,1009.47
2022-09-18T08:09:21.928Z,1009.45
2022-09-18T08:10:22.166Z,1009.40
2022-09-18T08:11:22.275Z,1009.46
2022-09-18T08:12:22.436Z,1009.35
2022-09-18T08:13:22.607Z,1009.25
2022-09-18T08:14:28.009Z,1009.40
2022-09-18T08:15:23.938Z,1009.32
2022-09-18T08:16:23.147Z,1009.32
2022-09-18T08:17:23.289Z,1009.27
2022-09-18T08:18:23.491Z,1009.33
2022-09-18T08:19:23.647Z,1009.41
2022-09-18T08:20:23.816Z,1009.31
2022-09-18T08:21:23.977Z,1009.34
2022-09-18T08:22:24.178Z,1009.33
2022-09-18T08:23:24.350Z,1009.28
2022-09-18T08:24:24.531Z,1009.32
2022-09-18T08:25:24.698Z,1009.38
2022-09-18T08:26:24.870Z,1009.36
2022-09-18T08:27:25.029Z,1009.35
2022-09-18T08:28:25.210Z,1009.39
2022-09-18T08:29:25.419Z,1009.35
2022-09-18T08:30:25.562Z,1009.30
2022-09-18T08:31:25.796Z,1009.37
2022-09-18T08:32:25.916Z,1009.29
2022-09-18T08:33:26.099Z,1009.30
2022-09-18T08:34:26.286Z,1009.35
2022-09-18T08:35:26.429Z,1009.24
2022-09-18T08:36:26.622Z,1009.34
2022-09-18T08:37:26.829Z,1009.28
2022-09-18T08:38:26.979Z,1009.25
2022-09-18T08:39:27.171Z,1009.19
2022-09-18T08:40:27.348Z,1009.30
2022-09-18T08:41:27.490Z,1009.20
2022-09-18T08:42:27.681Z,1009.25
2022-09-18T08:43:27.852Z,1009.28
2022-09-18T08:44:28.070Z,1009.29
2022-09-18T08:45:28.209Z,1009.27
2022-09-18T08:46:28.422Z,1009.16
2022-09-18T08:47:28.570Z,1009.23
2022-09-18T08:48:28.761Z,1009.22
2022-09-18T08:49:28.959Z,1009.21
2022-09-18T08:50:29.131Z,1009.17
2022-09-18T08:51:29.281Z,1009.20
2022-09-18T08:52:29.472Z,1009.21
2022-09-18T08:53:29.672Z,1009.17
2022-09-18T08:54:29.842Z,1009.22
2022-09-18T08:55:30.008Z,1009.23
2022-09-18T08:56:30.173Z,1009.20
2022-09-18T08:57:30.347Z,1009.18
2022-09-18T08:58:30.533Z,1009.12
2022-09-18T08:59:30.713Z,1009.13
2022-09-18T09:00:30.883Z,1009.18
2022-09-18T09:01:31.073Z,1009.21
2022-09-18T09:02:31.288Z,1009.20
2022-09-18T09:03:31.383Z,1009.23
2022-09-18T09:04:31.583Z,1009.14
2022-09-18T09:05:31.753Z,1009.07
2022-09-18T09:06:31.944Z,1009.19
2022-09-18T09:07:32.122Z,1009.10
2022-09-18T09:08:32.313Z,1009.28
2022-09-18T09:09:32.494Z,1009.26
2022-09-18T09:10:32.664Z,1009.12
2022-09-18T09:11:32.814Z,1009.16
2022-09-18T09:12:33.014Z,1009.18
2022-09-18T09:13:34.152Z,1009.17
2022-09-18T09:14:55.674Z,1009.30
2022-09-18T09:15:34.571Z,1009.26
2022-09-18T09:16:33.809Z,1009.21
2022-09-18T09:17:33.915Z,1009.18
2022-09-18T09:18:34.087Z,1009.18
2022-09-18T09:19:34.255Z,1009.23
2022-09-18T09:20:34.489Z,1009.16
2022-09-18T09:21:34.585Z,1009.13
2022-09-18T09:22:34.765Z,1009.13
2022-09-18T09:23:34.949Z,1009.22
2022-09-18T09:24:35.149Z,1009.12
2022-09-18T09:25:35.402Z,1009.07
2022-09-18T09:26:35.495Z,1009.09
2022-09-18T09:27:35.637Z,1008.97
2022-09-18T09:28:35.816Z,1009.09
2022-09-18T09:29:36.007Z,1009.06
2022-09-18T09:30:36.197Z,1009.05
2022-09-18T09:31:36.483Z,1009.09
2022-09-18T09:32:36.536Z,1009.05
2022-09-18T09:33:36.709Z,1009.09
2022-09-18T09:34:36.916Z,1009.08
2022-09-18T09:35:37.086Z,1009.07
2022-09-18T09:36:37.247Z,1009.08
2022-09-18T09:37:37.420Z,1009.05
2022-09-18T09:38:37.591Z,1008.97
2022-09-18T09:39:37.748Z,1009.06
2022-09-18T09:40:38.006Z,1009.01
2022-09-18T09:41:38.098Z,1008.96
2022-09-18T09:42:38.291Z,1008.97
2022-09-18T09:43:38.458Z,1008.93
2022-09-18T09:44:38.678Z,1008.82
2022-09-18T09:45:38.805Z,1008.85
2022-09-18T09:46:39.062Z,1008.76
2022-09-18T09:47:39.180Z,1008.79
2022-09-18T09:48:39.320Z,1008.85
2022-09-18T09:49:39.519Z,1008.80
2022-09-18T09:50:39.693Z,1008.82
2022-09-18T09:51:39.849Z,1008.79
2022-09-18T09:52:40.037Z,1008.90
2022-09-18T09:53:40.219Z,1008.96
2022-09-18T09:54:40.430Z,1008.92
2022-09-18T09:55:40.565Z,1008.90
2022-09-18T09:56:40.753Z,1009.01
2022-09-18T09:57:40.929Z,1008.97
2022-09-18T09:58:41.098Z,1008.86
2022-09-18T09:59:41.290Z,1008.87
2022-09-18T10:00:41.506Z,1008.92
2022-09-18T10:01:41.682Z,1008.93
2022-09-18T10:02:41.790Z,1008.93
2022-09-18T10:03:42.001Z,1008.93
2022-09-18T10:04:42.121Z,1008.94
2022-09-18T10:05:42.291Z,1008.88
2022-09-18T10:06:42.440Z,1008.92
2022-09-18T10:07:42.622Z,1008.94
2022-09-18T10:08:42.821Z,1008.97
2022-09-18T10:09:43.001Z,1008.93
2022-09-18T10:10:43.161Z,1008.93
2022-09-18T10:11:43.321Z,1008.99
2022-09-18T10:12:43.552Z,1008.92
2022-09-18T10:13:43.681Z,1008.99
2022-09-18T10:14:43.852Z,1008.95
2022-09-18T10:15:44.012Z,1009.03
2022-09-18T10:16:44.300Z,1008.93
2022-09-18T10:17:44.343Z,1008.96
2022-09-18T10:18:44.555Z,1008.88
2022-09-18T10:19:44.686Z,1008.90
2022-09-18T10:20:44.901Z,1008.84
2022-09-18T10:21:45.053Z,1008.92
2022-09-18T10:22:45.222Z,1008.96
2022-09-18T10:23:45.417Z,1009.02
2022-09-18T10:24:45.582Z,1008.98
2022-09-18T10:25:45.743Z,1009.00
2022-09-18T10:26:45.911Z,1009.01
2022-09-18T10:27:46.083Z,1009.02
2022-09-18T10:28:46.262Z,1009.03
2022-09-18T10:29:46.405Z,1009.01
2022-09-18T10:30:46.555Z,1008.89
2022-09-18T10:31:46.809Z,1009.03
2022-09-18T10:32:46.914Z,1008.97
2022-09-18T10:33:47.093Z,1008.92
2022-09-18T10:34:47.232Z,1008.92
2022-09-18T10:35:47.423Z,1008.88
2022-09-18T10:36:47.583Z,1008.98
2022-09-18T10:37:47.765Z,1008.90
2022-09-18T10:38:47.934Z,1008.89
2022-09-18T10:39:48.121Z,1008.95
2022-09-18T10:40:48.265Z,1008.82
2022-09-18T10:41:48.444Z,1008.87
2022-09-18T10:42:48.615Z,1008.90
2022-09-18T10:43:48.824Z,1008.82
2022-09-18T10:44:49.004Z,1008.81
2022-09-18T10:45:49.166Z,1008.80
2022-09-18T10:46:49.517Z,1008.81
2022-09-18T10:47:49.504Z,1008.89
2022-09-18T10:48:49.694Z,1008.80
2022-09-18T10:49:49.844Z,1008.83
2022-09-18T10:50:50.025Z,1008.88
2022-09-18T10:51:50.215Z,1008.82
2022-09-18T10:52:50.385Z,1008.83
2022-09-18T10:53:50.586Z,1008.81
2022-09-18T10:54:50.715Z,1008.77
2022-09-18T10:55:55.165Z,1008.87
2022-09-18T10:56:52.085Z,1008.84
2022-09-18T10:57:51.275Z,1008.81
2022-09-18T10:58:51.465Z,1008.89
2022-09-18T10:59:51.615Z,1008.94
2022-09-18T11:00:51.819Z,1008.83
2022-09-18T11:01:52.030Z,1008.84
2022-09-18T11:02:52.163Z,1008.79
2022-09-18T11:03:52.315Z,1008.88
2022-09-18T11:04:52.496Z,1008.80
2022-09-18T11:05:52.690Z,1008.83
2022-09-18T11:06:52.876Z,1008.79
2022-09-18T11:07:53.054Z,1008.79
2022-09-18T11:08:53.186Z,1008.79
2022-09-18T11:09:53.390Z,1008.80
2022-09-18T11:10:53.546Z,1008.69
2022-09-18T11:11:53.730Z,1008.72
2022-09-18T11:12:55.795Z,1008.73
2022-09-18T11:13:54.067Z,1008.55
2022-09-18T11:14:54.228Z,1008.64
2022-09-18T11:15:54.449Z,1008.65
2022-09-18T11:16:54.567Z,1008.69
2022-09-18T11:17:54.766Z,1008.42
2022-09-18T11:18:54.926Z,1008.43
2022-09-18T11:19:55.107Z,1008.47
2022-09-18T11:20:55.257Z,1008.43
2022-09-18T11:21:55.431Z,1008.52
2022-09-18T11:22:55.608Z,1008.53
2022-09-18T11:23:55.853Z,1008.55
2022-09-18T11:24:55.949Z,1008.35
2022-09-18T11:25:56.119Z,1008.49
2022-09-18T11:26:56.306Z,1008.49
2022-09-18T11:27:56.509Z,1008.47
2022-09-18T11:28:56.669Z,1008.52
2022-09-18T11:29:56.857Z,1008.49
2022-09-18T11:30:57.015Z,1008.45
2022-09-18T11:31:57.282Z,1008.44
2022-09-18T11:32:57.387Z,1008.41
2022-09-18T11:33:57.560Z,1008.39
2022-09-18T11:34:57.734Z,1008.26
2022-09-18T11:35:57.918Z,1008.31
2022-09-18T11:36:58.068Z,1008.34
2022-09-18T11:37:58.283Z,1008.40
2022-09-18T11:38:58.406Z,1008.22
2022-09-18T11:39:58.634Z,1008.25
2022-09-18T11:40:58.778Z,1008.26
2022-09-18T11:41:58.990Z,1008.26
2022-09-18T11:42:59.151Z,1008.22
2022-09-18T11:43:59.299Z,1008.21
2022-09-18T11:44:59.446Z,1008.23
2022-09-18T11:45:59.685Z,1008.18
2022-09-18T11:46:59.863Z,1008.20
2022-09-18T11:48:00.017Z,1008.17
2022-09-18T11:49:04.316Z,1008.19
2022-09-18T11:50:00.380Z,1008.26
2022-09-18T11:51:00.509Z,1008.24
2022-09-18T11:52:00.703Z,1008.15
2022-09-18T11:53:00.881Z,1008.21
2022-09-18T11:54:01.102Z,1008.14
2022-09-18T11:55:01.189Z,1008.08
2022-09-18T11:56:01.371Z,1008.15
2022-09-18T11:57:01.577Z,1008.13
2022-09-18T11:58:01.752Z,1008.06
2022-09-18T11:59:01.921Z,1008.09
2022-09-18T12:00:02.069Z,1008.08
2022-09-18T12:01:05.151Z,1008.09
2022-09-18T12:02:02.426Z,1008.01
2022-09-18T12:03:02.689Z,1008.02
2022-09-18T12:04:02.755Z,1008.01
2022-09-18T12:05:02.899Z,1008.03
2022-09-18T12:06:03.094Z,1008.00
2022-09-18T12:07:03.263Z,1008.01
2022-09-18T12:08:02.084Z,1008.02